createdAt,value
2017-03-15T00:01:08.634Z,0
2017-03-15T00:02:21.869Z,0
2017-03-15T00:03:35.120Z,0
2017-03-15T00:04:48.399Z,0
2017-03-15T00:06:01.690Z,0
2017-03-15T00:07:14.978Z,0
2017-03-15T00:08:27.769Z,0
2017-03-15T00:09:40.994Z,0
2017-03-15T00:10:53.749Z,0
2017-03-15T00:12:06.503Z,0
2017-03-15T00:13:19.751Z,0
2017-03-15T00:14:33.005Z,0
2017-03-15T00:15:46.316Z,0
2017-03-15T00:16:58.534Z,0
2017-03-15T00:18:11.814Z,0
2017-03-15T00:19:24.547Z,0
2017-03-15T00:20:37.293Z,0
2017-03-15T00:21:50.067Z,0
2017-03-15T00:23:03.345Z,0
2017-03-15T00:24:16.157Z,0
2017-03-15T00:25:28.912Z,0
2017-03-15T00:26:41.639Z,0
2017-03-15T00:27:54.904Z,0
2017-03-15T00:29:07.648Z,0
2017-03-15T00:30:20.950Z,0
2017-03-15T00:31:33.188Z,0
2017-03-15T00:32:46.486Z,0
2017-03-15T00:33:59.781Z,0
2017-03-15T00:35:12.492Z,0
2017-03-15T00:36:25.249Z,0
2017-03-15T00:37:37.511Z,0
2017-03-15T00:38:49.735Z,0
2017-03-15T00:40:02.510Z,0
2017-03-15T00:41:15.747Z,0
2017-03-15T00:42:29.014Z,0
2017-03-15T00:43:41.737Z,0
2017-03-15T00:44:54.971Z,0
2017-03-15T00:46:08.256Z,0
2017-03-15T00:47:21.634Z,0
2017-03-15T00:48:34.363Z,0
2017-03-15T00:49:47.122Z,0
2017-03-15T00:50:59.348Z,0
2017-03-15T00:52:12.068Z,0
2017-03-15T00:53:24.852Z,0
2017-03-15T00:54:38.101Z,0
2017-03-15T00:55:51.334Z,0
2017-03-15T00:57:04.594Z,0
2017-03-15T00:58:17.849Z,0
2017-03-15T00:59:30.592Z,0
2017-03-15T01:00:43.893Z,0
2017-03-15T01:01:57.149Z,0
2017-03-15T01:03:09.375Z,0
2017-03-15T01:04:22.660Z,0
2017-03-15T01:05:35.917Z,0
2017-03-15T01:06:49.198Z,0
2017-03-15T01:08:01.914Z,0
2017-03-15T01:09:15.161Z,0
2017-03-15T01:10:27.385Z,0
2017-03-15T01:11:40.511Z,0
2017-03-15T01:12:53.335Z,0
2017-03-15T01:14:06.647Z,0
2017-03-15T01:15:19.913Z,0
2017-03-15T01:16:33.202Z,0
2017-03-15T01:17:46.444Z,0
2017-03-15T01:18:59.699Z,0
2017-03-15T01:20:12.454Z,0
2017-03-15T01:21:25.718Z,0
2017-03-15T01:22:39.022Z,0
2017-03-15T01:23:52.269Z,0
2017-03-15T01:25:05.043Z,0
2017-03-15T01:26:18.310Z,0
2017-03-15T01:27:31.592Z,0
2017-03-15T01:28:44.333Z,0
2017-03-15T01:29:56.557Z,0
2017-03-15T01:31:09.292Z,0
2017-03-15T01:32:22.549Z,0
2017-03-15T01:33:35.845Z,0
2017-03-15T01:34:48.069Z,0
2017-03-15T01:36:00.854Z,0
2017-03-15T01:37:13.082Z,0
2017-03-15T01:38:25.829Z,0
2017-03-15T01:39:39.138Z,0
2017-03-15T01:40:52.433Z,0
2017-03-15T01:42:05.195Z,0
2017-03-15T01:43:18.451Z,0
2017-03-15T01:44:31.718Z,0
2017-03-15T01:45:44.986Z,0
2017-03-15T01:46:56.693Z,0
2017-03-15T01:48:09.458Z,0
2017-03-15T01:49:22.763Z,0
2017-03-15T01:50:36.039Z,0
2017-03-15T01:51:49.300Z,0
2017-03-15T01:53:02.549Z,0
2017-03-15T01:54:15.818Z,0
2017-03-15T01:55:29.081Z,0
2017-03-15T01:56:42.356Z,0
2017-03-15T01:57:55.116Z,0
2017-03-15T01:59:08.374Z,0
2017-03-15T02:00:21.612Z,0
2017-03-15T02:01:34.383Z,0
2017-03-15T02:02:47.106Z,0
2017-03-15T02:03:59.851Z,0
2017-03-15T02:05:12.090Z,0
2017-03-15T02:06:25.396Z,0
2017-03-15T02:07:37.661Z,0
2017-03-15T02:08:49.931Z,0
2017-03-15T02:10:02.171Z,0
2017-03-15T02:11:14.911Z,0
2017-03-15T02:12:27.648Z,0
2017-03-15T02:13:40.906Z,0
2017-03-15T02:14:53.666Z,0
2017-03-15T02:16:06.896Z,0
2017-03-15T02:17:19.135Z,0
2017-03-15T02:18:32.399Z,0
2017-03-15T02:19:45.770Z,0
2017-03-15T02:20:58.519Z,0
2017-03-15T02:22:11.776Z,0
2017-03-15T02:23:25.051Z,0
2017-03-15T02:24:37.823Z,0
2017-03-15T02:25:50.581Z,0
2017-03-15T02:27:03.839Z,0
2017-03-15T02:28:17.034Z,0
2017-03-15T02:29:29.986Z,0
2017-03-15T02:30:42.729Z,0
2017-03-15T02:31:55.949Z,0
2017-03-15T02:33:09.184Z,0
2017-03-15T02:34:21.923Z,0
2017-03-15T02:35:35.214Z,0
2017-03-15T02:36:47.477Z,0
2017-03-15T02:37:59.714Z,0
2017-03-15T02:39:12.434Z,0
2017-03-15T02:40:25.593Z,0
2017-03-15T02:41:38.101Z,0
2017-03-15T02:42:51.068Z,0
2017-03-15T02:44:03.812Z,0
2017-03-15T02:45:16.537Z,0
2017-03-15T02:46:29.759Z,0
2017-03-15T02:47:42.493Z,0
2017-03-15T02:48:55.791Z,0
2017-03-15T02:50:08.004Z,0
2017-03-15T02:51:21.267Z,0
2017-03-15T02:52:34.527Z,0
2017-03-15T02:53:47.262Z,0
2017-03-15T02:54:59.988Z,0
2017-03-15T02:56:12.708Z,0
2017-03-15T02:57:25.432Z,0
2017-03-15T02:58:38.161Z,0
2017-03-15T02:59:50.946Z,0
2017-03-15T03:01:03.219Z,0
2017-03-15T03:02:16.483Z,0
2017-03-15T03:03:29.220Z,0
2017-03-15T03:04:41.936Z,0
2017-03-15T03:05:54.139Z,0
2017-03-15T03:07:07.388Z,0
2017-03-15T03:08:20.656Z,0
2017-03-15T03:09:33.456Z,0
2017-03-15T03:10:46.185Z,0
2017-03-15T03:11:59.409Z,0
2017-03-15T03:13:12.670Z,0
2017-03-15T03:14:25.932Z,0
2017-03-15T03:15:39.169Z,0
2017-03-15T03:16:52.425Z,0
2017-03-15T03:18:05.713Z,0
2017-03-15T03:19:18.469Z,0
2017-03-15T03:20:31.709Z,0
2017-03-15T03:21:43.916Z,0
2017-03-15T03:22:56.665Z,0
2017-03-15T03:24:08.920Z,0
2017-03-15T03:25:22.174Z,0
2017-03-15T03:26:34.906Z,0
2017-03-15T03:27:48.151Z,0
2017-03-15T03:29:01.423Z,0
2017-03-15T03:30:14.705Z,0
2017-03-15T03:31:27.469Z,0
2017-03-15T03:32:40.217Z,0
2017-03-15T03:33:53.481Z,0
2017-03-15T03:35:06.705Z,0
2017-03-15T03:36:19.440Z,0
2017-03-15T03:37:32.713Z,0
2017-03-15T03:38:46.021Z,0
2017-03-15T03:39:58.741Z,0
2017-03-15T03:41:11.490Z,0
2017-03-15T03:42:24.759Z,0
2017-03-15T03:43:38.030Z,0
2017-03-15T03:44:50.788Z,0
2017-03-15T03:46:04.116Z,0
2017-03-15T03:47:16.840Z,0
2017-03-15T03:48:30.082Z,0
2017-03-15T03:49:43.378Z,0
2017-03-15T03:50:56.634Z,0
2017-03-15T03:52:09.363Z,0
2017-03-15T03:53:22.066Z,0
2017-03-15T03:54:34.823Z,0
2017-03-15T03:55:47.590Z,0
2017-03-15T03:57:00.874Z,0
2017-03-15T03:58:13.606Z,0
2017-03-15T03:59:26.885Z,0
2017-03-15T04:00:39.668Z,0
2017-03-15T04:01:51.916Z,0
2017-03-15T04:03:04.123Z,0
2017-03-15T04:04:16.852Z,0
2017-03-15T04:05:30.136Z,0
2017-03-15T04:06:42.875Z,0
2017-03-15T04:07:56.147Z,0
2017-03-15T04:09:08.890Z,0
2017-03-15T04:10:22.167Z,0
2017-03-15T04:11:35.446Z,0
2017-03-15T04:12:48.740Z,0
2017-03-15T04:14:02.012Z,0
2017-03-15T04:15:15.280Z,0
2017-03-15T04:16:28.524Z,0
2017-03-15T04:17:41.265Z,0
2017-03-15T04:18:54.017Z,0
2017-03-15T04:20:07.285Z,0
2017-03-15T04:21:20.033Z,0
2017-03-15T04:22:32.786Z,0
2017-03-15T04:23:46.056Z,0
2017-03-15T04:24:59.319Z,0
2017-03-15T04:26:12.060Z,0
2017-03-15T04:27:25.278Z,0
2017-03-15T04:28:38.541Z,0
2017-03-15T04:29:51.340Z,0
2017-03-15T04:31:04.071Z,0
2017-03-15T04:32:16.799Z,0
2017-03-15T04:33:30.089Z,0
2017-03-15T04:34:42.335Z,0
2017-03-15T04:35:55.602Z,0
2017-03-15T04:37:08.868Z,0
2017-03-15T04:38:22.102Z,0
2017-03-15T04:39:34.865Z,0
2017-03-15T04:40:47.618Z,0
2017-03-15T04:42:00.836Z,0
2017-03-15T04:43:14.068Z,0
2017-03-15T04:44:27.336Z,0
2017-03-15T04:45:40.118Z,0
2017-03-15T04:46:53.343Z,0
2017-03-15T04:48:06.600Z,0
2017-03-15T04:49:19.326Z,0
2017-03-15T04:50:32.611Z,0
2017-03-15T04:51:45.843Z,0
2017-03-15T04:52:59.088Z,0
2017-03-15T04:54:12.421Z,0
2017-03-15T04:55:25.688Z,0
2017-03-15T04:56:38.455Z,0
2017-03-15T04:57:51.695Z,0
2017-03-15T04:59:04.448Z,0
2017-03-15T05:00:17.716Z,0
2017-03-15T05:01:30.991Z,0
2017-03-15T05:02:43.729Z,0
2017-03-15T05:03:56.962Z,0
2017-03-15T05:05:09.705Z,0
2017-03-15T05:06:22.465Z,0
2017-03-15T05:07:35.695Z,0
2017-03-15T05:08:47.926Z,0
2017-03-15T05:10:01.166Z,0
2017-03-15T05:11:14.397Z,0
2017-03-15T05:12:27.176Z,0
2017-03-15T05:13:40.441Z,0
2017-03-15T05:14:53.756Z,0
2017-03-15T05:16:07.108Z,0
2017-03-15T05:17:19.306Z,0
2017-03-15T05:18:32.528Z,0
2017-03-15T05:19:44.792Z,0
2017-03-15T05:20:58.097Z,0
2017-03-15T05:22:11.353Z,0
2017-03-15T05:23:24.635Z,0
2017-03-15T05:24:37.909Z,0
2017-03-15T05:25:50.633Z,0
2017-03-15T05:27:02.852Z,0
2017-03-15T05:28:15.598Z,0
2017-03-15T05:29:27.858Z,0
2017-03-15T05:30:40.591Z,0
2017-03-15T05:31:53.329Z,0
2017-03-15T05:33:06.079Z,0
2017-03-15T05:34:18.808Z,0
2017-03-15T05:35:32.059Z,0
2017-03-15T05:36:44.323Z,0
2017-03-15T05:37:57.587Z,0
2017-03-15T05:39:09.305Z,0
2017-03-15T05:40:22.575Z,0
2017-03-15T05:41:35.871Z,0
2017-03-15T05:42:48.097Z,0
2017-03-15T05:44:01.407Z,0
2017-03-15T05:45:14.837Z,0
2017-03-15T05:46:27.595Z,0
2017-03-15T05:47:40.896Z,0
2017-03-15T05:48:54.164Z,0
2017-03-15T05:50:06.910Z,0
2017-03-15T05:51:19.126Z,0
2017-03-15T05:52:32.397Z,0
2017-03-15T05:53:45.147Z,0
2017-03-15T05:54:57.361Z,0
2017-03-15T05:56:09.608Z,0
2017-03-15T05:57:22.886Z,0
2017-03-15T05:58:35.658Z,0
2017-03-15T05:59:48.404Z,0
2017-03-15T06:01:01.153Z,0
2017-03-15T06:02:13.954Z,0
2017-03-15T06:03:26.689Z,0
2017-03-15T06:04:39.940Z,0
2017-03-15T06:05:53.220Z,0
2017-03-15T06:07:06.482Z,0
2017-03-15T06:08:19.249Z,0
2017-03-15T06:09:32.490Z,0
2017-03-15T06:10:44.191Z,0
2017-03-15T06:11:56.938Z,0
2017-03-15T06:13:09.171Z,0
2017-03-15T06:14:22.359Z,0
2017-03-15T06:15:35.749Z,0
2017-03-15T06:16:49.165Z,0
2017-03-15T06:18:03.139Z,0
2017-03-15T06:19:16.043Z,0
2017-03-15T06:20:30.026Z,0
2017-03-15T06:21:44.081Z,0
2017-03-15T06:22:57.484Z,0
2017-03-15T06:24:10.881Z,0
2017-03-15T06:25:24.298Z,0
2017-03-15T06:26:37.719Z,0
2017-03-15T06:27:51.142Z,0
2017-03-15T06:29:04.546Z,0
2017-03-15T06:30:18.514Z,0
2017-03-15T06:31:32.474Z,0
2017-03-15T06:32:46.478Z,0
2017-03-15T06:33:59.868Z,0
2017-03-15T06:35:12.710Z,0
2017-03-15T06:36:26.661Z,0
2017-03-15T06:37:40.051Z,0
2017-03-15T06:38:53.481Z,0
2017-03-15T06:40:06.877Z,0
2017-03-15T06:41:19.717Z,0
2017-03-15T06:42:33.106Z,0
2017-03-15T06:43:46.009Z,0
2017-03-15T06:44:59.990Z,0
2017-03-15T06:46:13.495Z,0
2017-03-15T06:47:27.488Z,0
2017-03-15T06:48:40.890Z,0
2017-03-15T06:49:54.846Z,0
2017-03-15T06:51:08.851Z,0
2017-03-15T06:52:22.846Z,0
2017-03-15T06:53:36.295Z,0
2017-03-15T06:54:49.707Z,0
2017-03-15T06:56:03.096Z,0
2017-03-15T06:57:15.375Z,0
2017-03-15T06:58:28.809Z,0
2017-03-15T06:59:42.824Z,0
2017-03-15T07:00:56.826Z,0
2017-03-15T07:02:10.218Z,0
2017-03-15T07:03:24.230Z,0
2017-03-15T07:04:38.219Z,0
2017-03-15T07:05:52.199Z,0
2017-03-15T07:07:05.067Z,0
2017-03-15T07:08:19.014Z,0
2017-03-15T07:09:33.053Z,0
2017-03-15T07:10:47.090Z,0
2017-03-15T07:12:01.090Z,0
2017-03-15T07:13:15.079Z,0
2017-03-15T07:14:29.039Z,0
2017-03-15T07:15:42.997Z,0
2017-03-15T07:16:55.890Z,0
2017-03-15T07:18:08.734Z,0
2017-03-15T07:19:22.731Z,0
2017-03-15T07:20:35.612Z,0
2017-03-15T07:21:49.056Z,0
2017-03-15T07:23:03.053Z,0
2017-03-15T07:24:15.335Z,0
2017-03-15T07:25:28.196Z,0
2017-03-15T07:26:41.072Z,0
2017-03-15T07:27:54.522Z,0
2017-03-15T07:29:08.492Z,0
2017-03-15T07:30:21.924Z,0
2017-03-15T07:31:35.924Z,0
2017-03-15T07:32:49.885Z,0
2017-03-15T07:34:03.324Z,0
2017-03-15T07:35:16.762Z,0
2017-03-15T07:36:30.733Z,0
2017-03-15T07:37:43.588Z,0
2017-03-15T07:38:56.985Z,0
2017-03-15T07:40:10.964Z,0
2017-03-15T07:41:24.964Z,0
2017-03-15T07:42:38.957Z,0
2017-03-15T07:43:52.959Z,0
2017-03-15T07:45:05.836Z,0
2017-03-15T07:46:19.784Z,0
2017-03-15T07:47:33.746Z,0
2017-03-15T07:48:47.706Z,0
2017-03-15T07:50:01.150Z,0
2017-03-15T07:51:14.025Z,0
2017-03-15T07:52:28.018Z,0
2017-03-15T07:53:41.977Z,0
2017-03-15T07:54:54.856Z,0
2017-03-15T07:56:08.834Z,0
2017-03-15T07:57:22.220Z,0
2017-03-15T07:58:36.186Z,0
2017-03-15T07:59:50.150Z,0
2017-03-15T08:01:03.004Z,0
2017-03-15T08:02:16.413Z,0
2017-03-15T08:03:30.410Z,0
2017-03-15T08:04:44.388Z,0
2017-03-15T08:05:57.847Z,0
2017-03-15T08:07:11.866Z,0
2017-03-15T08:08:25.864Z,0
2017-03-15T08:09:38.709Z,0
2017-03-15T08:10:52.127Z,0
2017-03-15T08:12:06.090Z,0
2017-03-15T08:13:20.055Z,0
2017-03-15T08:14:33.485Z,0
2017-03-15T08:15:47.464Z,0
2017-03-15T08:17:01.427Z,0
2017-03-15T08:18:14.833Z,0
2017-03-15T08:19:27.656Z,0
2017-03-15T08:20:41.622Z,0
2017-03-15T08:21:55.014Z,0
2017-03-15T08:23:08.412Z,0
2017-03-15T08:24:22.538Z,0
2017-03-15T08:25:36.524Z,0
2017-03-15T08:26:50.538Z,0
2017-03-15T08:28:04.525Z,0
2017-03-15T08:29:18.525Z,0
2017-03-15T08:30:32.542Z,0
2017-03-15T08:31:46.538Z,0
2017-03-15T08:32:59.927Z,0
2017-03-15T08:34:13.393Z,0
2017-03-15T08:35:27.391Z,0
2017-03-15T08:36:40.790Z,0
2017-03-15T08:37:54.754Z,0
2017-03-15T08:39:08.767Z,0
2017-03-15T08:40:22.750Z,0
2017-03-15T08:41:36.701Z,0
2017-03-15T08:42:50.675Z,0
2017-03-15T08:44:04.124Z,0
2017-03-15T08:45:18.083Z,0
2017-03-15T08:46:31.484Z,4
2017-03-15T08:47:44.900Z,4
2017-03-15T08:48:58.327Z,4
2017-03-15T08:50:12.302Z,4
2017-03-15T08:51:26.277Z,8
2017-03-15T08:52:40.247Z,12
2017-03-15T08:53:53.680Z,24
2017-03-15T08:55:07.709Z,32
2017-03-15T08:56:21.340Z,40
2017-03-15T08:57:35.306Z,60
2017-03-15T08:58:48.746Z,76
2017-03-15T09:00:02.174Z,96
2017-03-15T09:01:16.141Z,120
2017-03-15T09:02:30.097Z,152
2017-03-15T09:03:44.110Z,188
2017-03-15T09:04:56.941Z,224
2017-03-15T09:06:10.910Z,272
2017-03-15T09:07:24.883Z,320
2017-03-15T09:08:37.711Z,376
2017-03-15T09:09:51.674Z,436
2017-03-15T09:11:05.641Z,516
2017-03-15T09:12:19.042Z,596
2017-03-15T09:13:33.026Z,660
2017-03-15T09:14:47.047Z,728
2017-03-15T09:16:00.459Z,820
2017-03-15T09:17:13.871Z,876
2017-03-15T09:18:27.843Z,960
2017-03-15T09:19:41.825Z,1080
2017-03-15T09:20:55.791Z,1236
2017-03-15T09:22:09.195Z,1412
2017-03-15T09:23:22.583Z,1544
2017-03-15T09:24:36.554Z,1684
2017-03-15T09:25:50.549Z,1808
2017-03-15T09:27:04.539Z,1876
2017-03-15T09:28:17.956Z,1972
2017-03-15T09:29:31.368Z,2012
2017-03-15T09:30:44.804Z,2096
2017-03-15T09:31:58.783Z,2244
2017-03-15T09:33:12.740Z,2272
2017-03-15T09:34:25.594Z,2352
2017-03-15T09:35:39.000Z,2452
2017-03-15T09:36:51.859Z,2528
2017-03-15T09:38:05.805Z,2644
2017-03-15T09:39:19.761Z,2620
2017-03-15T09:40:33.751Z,2648
2017-03-15T09:41:47.708Z,2588
2017-03-15T09:43:01.698Z,2604
2017-03-15T09:44:15.698Z,2736
2017-03-15T09:45:28.536Z,2880
2017-03-15T09:46:41.409Z,3244
2017-03-15T09:47:54.845Z,3644
2017-03-15T09:49:08.887Z,5140
2017-03-15T09:50:22.298Z,6804
2017-03-15T09:51:36.276Z,9572
2017-03-15T09:52:49.133Z,10992
2017-03-15T09:54:01.996Z,11744
2017-03-15T09:55:14.869Z,8556
2017-03-15T09:56:28.883Z,9988
2017-03-15T09:57:41.727Z,9640
2017-03-15T09:58:54.579Z,9348
2017-03-15T10:00:08.574Z,17408
2017-03-15T10:01:22.548Z,20960
2017-03-15T10:02:36.543Z,18528
2017-03-15T10:03:49.936Z,9084
2017-03-15T10:05:03.347Z,8152
2017-03-15T10:06:16.186Z,8388
2017-03-15T10:07:30.116Z,8812
2017-03-15T10:08:44.141Z,8708
2017-03-15T10:09:58.137Z,8324
2017-03-15T10:11:11.564Z,9456
2017-03-15T10:12:24.972Z,10908
2017-03-15T10:13:38.408Z,12148
2017-03-15T10:14:51.836Z,12852
2017-03-15T10:16:05.238Z,12508
2017-03-15T10:17:19.208Z,13648
2017-03-15T10:18:33.180Z,15416
2017-03-15T10:19:46.587Z,16724
2017-03-15T10:20:59.982Z,18976
2017-03-15T10:22:13.980Z,25184
2017-03-15T10:23:27.399Z,36672
2017-03-15T10:24:40.273Z,20704
2017-03-15T10:25:54.259Z,31616
2017-03-15T10:27:08.270Z,41344
2017-03-15T10:28:21.699Z,42304
2017-03-15T10:29:35.111Z,33920
2017-03-15T10:30:48.523Z,39872
2017-03-15T10:32:02.483Z,36448
2017-03-15T10:33:15.908Z,42656
2017-03-15T10:34:29.935Z,43264
2017-03-15T10:35:43.342Z,43520
2017-03-15T10:36:57.296Z,35008
2017-03-15T10:38:10.737Z,44864
2017-03-15T10:39:24.724Z,19104
2017-03-15T10:40:38.144Z,18304
2017-03-15T10:41:52.108Z,22656
2017-03-15T10:43:04.389Z,46432
2017-03-15T10:44:17.800Z,55744
2017-03-15T10:45:31.748Z,55456
2017-03-15T10:46:45.178Z,33088
2017-03-15T10:47:58.560Z,57728
2017-03-15T10:49:12.563Z,57568
2017-03-15T10:50:26.522Z,47008
2017-03-15T10:51:39.938Z,54208
2017-03-15T10:52:53.332Z,44928
2017-03-15T10:54:06.798Z,58912
2017-03-15T10:55:20.772Z,50752
2017-03-15T10:56:33.663Z,31360
2017-03-15T10:57:47.724Z,29696
2017-03-15T10:59:01.147Z,31232
2017-03-15T11:00:14.585Z,28384
2017-03-15T11:01:28.569Z,32704
2017-03-15T11:02:42.596Z,19552
2017-03-15T11:03:56.563Z,61792
2017-03-15T11:05:09.981Z,65056
2017-03-15T11:06:23.946Z,54944
2017-03-15T11:07:37.341Z,63072
2017-03-15T11:08:51.327Z,65696
2017-03-15T11:10:04.790Z,58304
2017-03-15T11:11:18.761Z,29728
2017-03-15T11:12:32.241Z,33024
2017-03-15T11:13:45.601Z,60128
2017-03-15T11:14:59.094Z,35328
2017-03-15T11:16:13.062Z,52768
2017-03-15T11:17:27.015Z,67968
2017-03-15T11:18:41.147Z,30304
2017-03-15T11:19:54.526Z,28736
2017-03-15T11:21:08.503Z,66816
2017-03-15T11:22:22.475Z,33344
2017-03-15T11:23:36.474Z,27616
2017-03-15T11:24:49.883Z,30880
2017-03-15T11:26:02.698Z,66752
2017-03-15T11:27:16.127Z,30368
2017-03-15T11:28:29.544Z,33088
2017-03-15T11:29:42.935Z,38624
2017-03-15T11:30:56.320Z,67936
2017-03-15T11:32:09.742Z,44736
2017-03-15T11:33:23.348Z,53088
2017-03-15T11:34:36.939Z,41952
2017-03-15T11:35:50.348Z,29856
2017-03-15T11:37:04.324Z,82016
2017-03-15T11:38:17.718Z,53088
2017-03-15T11:39:31.676Z,87712
2017-03-15T11:40:45.088Z,91840
2017-03-15T11:41:58.493Z,58560
2017-03-15T11:43:12.450Z,47680
2017-03-15T11:44:25.870Z,44736
2017-03-15T11:45:39.886Z,43584
2017-03-15T11:46:52.744Z,61984
2017-03-15T11:48:05.674Z,50848
2017-03-15T11:49:19.100Z,53632
2017-03-15T11:50:32.578Z,61632
2017-03-15T11:51:46.540Z,46336
2017-03-15T11:52:58.844Z,43776
2017-03-15T11:54:11.127Z,41568
2017-03-15T11:55:24.511Z,40128
2017-03-15T11:56:37.940Z,39488
2017-03-15T11:57:51.373Z,40000
2017-03-15T11:59:04.844Z,38176
2017-03-15T12:00:18.823Z,43296
2017-03-15T12:01:32.836Z,45056
2017-03-15T12:02:45.135Z,41632
2017-03-15T12:03:58.537Z,48640
2017-03-15T12:05:12.477Z,51744
2017-03-15T12:06:25.352Z,46880
2017-03-15T12:07:57.759Z,48064
2017-03-15T12:09:11.794Z,54016
2017-03-15T12:10:25.778Z,47520
2017-03-15T12:11:39.752Z,119392
2017-03-15T12:12:52.608Z,54720
2017-03-15T12:14:04.880Z,95232
2017-03-15T12:15:17.735Z,101376
2017-03-15T12:16:30.020Z,83872
2017-03-15T12:17:43.979Z,140064
2017-03-15T12:18:57.961Z,97920
2017-03-15T12:20:11.368Z,144544
2017-03-15T12:21:24.781Z,60800
2017-03-15T12:22:38.203Z,96832
2017-03-15T12:23:52.156Z,95904
2017-03-15T12:25:05.016Z,113824
2017-03-15T12:26:18.984Z,123808
2017-03-15T12:27:32.971Z,88192
2017-03-15T12:29:05.580Z,85024
2017-03-15T12:30:19.166Z,80896
2017-03-15T12:31:33.243Z,57440
2017-03-15T12:32:46.683Z,51840
2017-03-15T12:34:00.118Z,55232
2017-03-15T12:35:13.547Z,134592
2017-03-15T12:36:26.989Z,101344
2017-03-15T12:37:40.971Z,110016
2017-03-15T12:38:54.372Z,123840
2017-03-15T12:40:07.222Z,94944
2017-03-15T12:41:20.678Z,114304
2017-03-15T12:42:34.113Z,53312
2017-03-15T12:43:48.096Z,115648
2017-03-15T12:45:02.055Z,74208
2017-03-15T12:46:15.474Z,107200
2017-03-15T12:47:29.453Z,105920
2017-03-15T12:48:43.449Z,105184
2017-03-15T12:49:56.857Z,96416
2017-03-15T12:51:10.287Z,114752
2017-03-15T12:52:24.271Z,121632
2017-03-15T12:53:37.223Z,121472
2017-03-15T12:54:51.270Z,109216
2017-03-15T12:56:05.237Z,70656
2017-03-15T12:57:18.664Z,32832
2017-03-15T12:58:32.634Z,62144
2017-03-15T12:59:45.491Z,94016
2017-03-15T13:00:58.898Z,101600
2017-03-15T13:02:12.739Z,112896
2017-03-15T13:03:26.332Z,111712
2017-03-15T13:04:39.770Z,106432
2017-03-15T13:05:52.610Z,102560
2017-03-15T13:07:05.435Z,109216
2017-03-15T13:08:19.395Z,109344
2017-03-15T13:09:33.371Z,117856
2017-03-15T13:10:46.236Z,111648
2017-03-15T13:12:00.254Z,107808
2017-03-15T13:13:13.081Z,105152
2017-03-15T13:14:26.494Z,108608
2017-03-15T13:15:39.888Z,109792
2017-03-15T13:16:52.732Z,107168
2017-03-15T13:18:06.150Z,115456
2017-03-15T13:19:19.562Z,112448
2017-03-15T13:20:33.537Z,113408
2017-03-15T13:21:45.847Z,119872
2017-03-15T13:22:59.844Z,103584
2017-03-15T13:24:13.260Z,102016
2017-03-15T13:25:26.662Z,108928
2017-03-15T13:26:39.762Z,113056
2017-03-15T13:27:52.623Z,113504
2017-03-15T13:29:06.623Z,109984
2017-03-15T13:30:20.064Z,106112
2017-03-15T13:31:34.081Z,109984
2017-03-15T13:32:47.501Z,112832
2017-03-15T13:34:01.490Z,109920
2017-03-15T13:35:14.898Z,98304
2017-03-15T13:36:28.872Z,95456
2017-03-15T13:37:42.868Z,87520
2017-03-15T13:38:56.281Z,99424
2017-03-15T13:40:08.604Z,113568
2017-03-15T13:41:22.568Z,109440
2017-03-15T13:42:36.073Z,113280
2017-03-15T13:43:48.908Z,113056
2017-03-15T13:45:02.902Z,115520
2017-03-15T13:46:15.785Z,118720
2017-03-15T13:47:29.797Z,109344
2017-03-15T13:48:43.247Z,101984
2017-03-15T13:49:57.241Z,113472
2017-03-15T13:51:10.671Z,117792
2017-03-15T13:52:23.549Z,107072
2017-03-15T13:53:36.971Z,109344
2017-03-15T13:54:50.959Z,114048
2017-03-15T13:56:04.368Z,116160
2017-03-15T13:57:17.810Z,115552
2017-03-15T13:58:30.701Z,115616
2017-03-15T13:59:44.691Z,118144
2017-03-15T14:00:58.102Z,111776
2017-03-15T14:02:11.494Z,105792
2017-03-15T14:03:24.915Z,114400
2017-03-15T14:04:38.366Z,67488
2017-03-15T14:05:52.367Z,38560
2017-03-15T14:07:05.780Z,31456
2017-03-15T14:08:19.774Z,38400
2017-03-15T14:09:33.203Z,112800
2017-03-15T14:10:46.601Z,114688
2017-03-15T14:12:00.554Z,123232
2017-03-15T14:13:13.999Z,126432
2017-03-15T14:14:28.047Z,128352
2017-03-15T14:15:41.451Z,126016
2017-03-15T14:16:55.454Z,94080
2017-03-15T14:18:08.895Z,112288
2017-03-15T14:19:22.869Z,123040
2017-03-15T14:20:36.854Z,134208
2017-03-15T14:21:50.314Z,134560
2017-03-15T14:23:03.195Z,80032
2017-03-15T14:24:17.171Z,136512
2017-03-15T14:25:30.613Z,132576
2017-03-15T14:26:44.564Z,134848
2017-03-15T14:27:57.425Z,132608
2017-03-15T14:29:10.279Z,138336
2017-03-15T14:30:23.697Z,130144
2017-03-15T14:31:37.113Z,123712
2017-03-15T14:32:50.530Z,122176
2017-03-15T14:34:04.518Z,90272
2017-03-15T14:35:18.536Z,126496
2017-03-15T14:36:31.928Z,133408
2017-03-15T14:37:45.923Z,132448
2017-03-15T14:38:58.910Z,76480
2017-03-15T14:40:11.212Z,49088
2017-03-15T14:41:24.623Z,118944
2017-03-15T14:42:38.609Z,140736
2017-03-15T14:43:52.582Z,71264
2017-03-15T14:45:06.027Z,91360
2017-03-15T14:46:19.117Z,136000
2017-03-15T14:47:33.075Z,133824
2017-03-15T14:48:47.085Z,128704
2017-03-15T14:50:00.501Z,121024
2017-03-15T14:51:13.895Z,100896
2017-03-15T14:52:27.901Z,93952
2017-03-15T14:53:41.863Z,126432
2017-03-15T14:54:55.870Z,121760
2017-03-15T14:56:08.189Z,130240
2017-03-15T14:57:22.184Z,135680
2017-03-15T14:58:36.184Z,54304
2017-03-15T14:59:47.932Z,40544
2017-03-15T15:01:01.934Z,42816
2017-03-15T15:02:15.927Z,55424
2017-03-15T15:03:29.352Z,112064
2017-03-15T15:04:42.246Z,43424
2017-03-15T15:05:56.262Z,53728
2017-03-15T15:07:09.672Z,142112
2017-03-15T15:08:23.109Z,145536
2017-03-15T15:09:36.991Z,139904
2017-03-15T15:10:50.977Z,126912
2017-03-15T15:12:03.825Z,137088
2017-03-15T15:13:17.809Z,133312
2017-03-15T15:14:31.810Z,133536
2017-03-15T15:15:45.948Z,136320
2017-03-15T15:16:59.342Z,136608
2017-03-15T15:18:13.298Z,133408
2017-03-15T15:19:26.732Z,138016
2017-03-15T15:20:40.158Z,137504
2017-03-15T15:21:54.151Z,131776
2017-03-15T15:23:07.550Z,126208
2017-03-15T15:24:20.390Z,121024
2017-03-15T15:25:34.408Z,36832
2017-03-15T15:26:47.293Z,33472
2017-03-15T15:28:01.280Z,30208
2017-03-15T15:29:15.326Z,29760
2017-03-15T15:30:28.779Z,31584
2017-03-15T15:31:42.192Z,28768
2017-03-15T15:32:56.173Z,28352
2017-03-15T15:34:10.166Z,30240
2017-03-15T15:35:24.150Z,66016
2017-03-15T15:36:37.572Z,96000
2017-03-15T15:37:51.594Z,99936
2017-03-15T15:39:05.004Z,106368
2017-03-15T15:40:18.975Z,116032
2017-03-15T15:41:32.943Z,118656
2017-03-15T15:42:45.832Z,102272
2017-03-15T15:43:59.322Z,116000
2017-03-15T15:45:12.764Z,119584
2017-03-15T15:46:26.716Z,117632
2017-03-15T15:47:40.183Z,134624
2017-03-15T15:48:54.181Z,129440
2017-03-15T15:50:08.160Z,134176
2017-03-15T15:51:22.129Z,132768
2017-03-15T15:52:35.550Z,127360
2017-03-15T15:53:48.990Z,127328
2017-03-15T15:55:01.303Z,136256
2017-03-15T15:56:14.803Z,134080
2017-03-15T15:57:28.890Z,135296
2017-03-15T15:58:42.866Z,139072
2017-03-15T15:59:56.299Z,137632
2017-03-15T16:01:10.280Z,43104
2017-03-15T16:02:23.159Z,139072
2017-03-15T16:03:37.122Z,145440
2017-03-15T16:04:50.541Z,140864
2017-03-15T16:06:03.990Z,139488
2017-03-15T16:07:17.395Z,137536
2017-03-15T16:08:30.808Z,48992
2017-03-15T16:09:44.794Z,40736
2017-03-15T16:10:58.240Z,38624
2017-03-15T16:12:12.232Z,61056
2017-03-15T16:13:25.688Z,34144
2017-03-15T16:14:38.546Z,31904
2017-03-15T16:15:52.570Z,31168
2017-03-15T16:17:05.975Z,31520
2017-03-15T16:18:19.402Z,30368
2017-03-15T16:19:32.842Z,30016
2017-03-15T16:20:46.263Z,30720
2017-03-15T16:21:59.102Z,31168
2017-03-15T16:23:12.572Z,31456
2017-03-15T16:24:26.599Z,29888
2017-03-15T16:25:39.467Z,27680
2017-03-15T16:26:53.456Z,25760
2017-03-15T16:28:06.867Z,24352
2017-03-15T16:29:20.871Z,23712
2017-03-15T16:30:34.845Z,23264
2017-03-15T16:31:48.302Z,23072
2017-03-15T16:33:01.744Z,22624
2017-03-15T16:34:15.716Z,21600
2017-03-15T16:35:29.696Z,20512
2017-03-15T16:36:43.095Z,20288
2017-03-15T16:37:56.508Z,20768
2017-03-15T16:39:10.474Z,21056
2017-03-15T16:40:23.333Z,21056
2017-03-15T16:41:37.366Z,20864
2017-03-15T16:42:51.360Z,20544
2017-03-15T16:44:03.637Z,20544
2017-03-15T16:45:17.620Z,21376
2017-03-15T16:46:30.648Z,22528
2017-03-15T16:47:44.628Z,22688
2017-03-15T16:48:58.580Z,21632
2017-03-15T16:50:10.860Z,19936
2017-03-15T16:51:24.850Z,18240
2017-03-15T16:52:38.808Z,17440